Time;durP1;ratioP1;P1;durP2;ratioP2;P2;SDS_P1;SDS_P2;PMS_P1;PMS_P2;Temp;Humidity;BMP_temperature;BMP_pressure;BME280_temperature;BME280_humidity;BME280_pressure;Samples;Min_cycle;Max_cycle;Signal;HPM_P1;HPM_P2
2021/07/14 00:00:14;;;;;;;18.02;14.20;;;;;;;20.80;87.42;100184.33;1725139;80;21070;-70
2021/07/14 00:02:41;;;;;;;17.90;13.68;;;;;;;20.77;87.87;100189.94;1725411;83;21072;-72
2021/07/14 00:05:12;;;;;;;19.35;14.25;;;;;;;20.74;88.11;100186.52;1725248;81;21095;-72
2021/07/14 00:07:39;;;;;;;17.90;14.38;;;;;;;20.72;88.44;100190.30;1725388;82;21106;-72
2021/07/14 00:10:26;;;;;;;17.27;13.13;;;;;;;20.69;88.43;100183.36;1725114;83;21102;-71
2021/07/14 00:23:40;;;;;;;17.92;14.23;;;;;;;20.61;89.26;100185.77;1694000;83;21040;-72
2021/07/14 00:26:08;;;;;;;16.25;13.53;;;;;;;20.57;88.82;100184.33;1724956;81;21052;-71
2021/07/14 00:28:35;;;;;;;18.57;14.47;;;;;;;20.53;89.45;100177.48;1725688;83;21086;-71
2021/07/14 00:31:05;;;;;;;18.77;13.30;;;;;;;20.53;89.85;100182.83;1746573;82;21176;-71
2021/07/14 00:33:32;;;;;;;17.27;13.00;;;;;;;20.51;89.59;100178.08;1725206;83;21477;-70
2021/07/14 00:35:59;;;;;;;15.72;13.05;;;;;;;20.50;89.91;100181.73;1755331;81;21104;-71
2021/07/14 00:38:25;;;;;;;18.10;13.05;;;;;;;20.49;89.80;100181.36;1754884;81;21064;-72
2021/07/14 00:40:52;;;;;;;14.55;13.05;;;;;;;20.48;89.95;100179.66;1724988;83;21054;-71
2021/07/14 00:43:19;;;;;;;16.57;13.55;;;;;;;20.46;90.16;100185.62;1746293;82;21120;-72
2021/07/14 00:45:46;;;;;;;17.40;14.10;;;;;;;20.43;90.44;100181.82;1724976;83;21551;-71
2021/07/14 00:48:14;;;;;;;19.05;14.53;;;;;;;20.41;90.69;100183.79;1746092;82;21057;-71
2021/07/14 00:50:41;;;;;;;14.18;11.70;;;;;;;20.38;90.77;100182.17;1755197;81;21084;-72
2021/07/14 00:53:10;;;;;;;16.50;12.80;;;;;;;20.37;88.19;100186.33;1754884;81;21104;-72
2021/07/14 00:55:38;;;;;;;18.10;14.38;;;;;;;20.37;89.85;100178.30;1755283;81;21133;-71
2021/07/14 00:58:05;;;;;;;18.92;12.93;;;;;;;20.36;88.29;100180.59;1755100;81;21199;-71
2021/07/14 01:00:32;;;;;;;16.17;14.15;;;;;;;20.36;89.50;100178.80;1755399;81;21319;-71
2021/07/14 01:03:00;;;;;;;19.00;13.85;;;;;;;20.35;90.06;100179.75;1755168;81;21037;-72
2021/07/14 01:05:40;;;;;;;18.30;13.93;;;;;;;20.33;90.28;100179.86;1755147;81;21053;-71
2021/07/14 01:08:24;;;;;;;23.70;15.77;;;;;;;20.29;90.72;100186.44;1755650;81;21128;-71
2021/07/14 01:11:01;;;;;;;18.42;15.20;;;;;;;20.29;90.72;100186.44;1755117;81;21455;-72
2021/07/14 01:13:38;;;;;;;11.55;9.83;;;;;;;20.23;90.98;100186.89;1719969;82;21038;-71
2021/07/14 01:16:07;;;;;;;17.67;14.45;;;;;;;20.19;91.07;100185.42;1747067;82;21070;-71
2021/07/14 01:18:55;;;;;;;14.80;12.53;;;;;;;20.16;90.04;100184.81;1746960;81;21057;-71
2021/07/14 01:21:45;;;;;;;17.82;13.83;;;;;;;20.12;89.60;100185.52;1746995;81;21575;-71
2021/07/14 01:24:32;;;;;;;18.00;14.13;;;;;;;20.08;90.90;100180.03;1711001;83;21338;-71
2021/07/14 01:27:06;;;;;;;15.15;13.55;;;;;;;20.04;91.24;100181.26;1691833;84;21616;-71
2021/07/14 01:29:34;;;;;;;17.67;13.88;;;;;;;20.02;91.74;100184.53;1691726;84;21076;-73
2021/07/14 01:32:03;;;;;;;19.95;15.85;;;;;;;19.99;92.18;100183.41;1691840;84;21148;-74
2021/07/14 01:34:31;;;;;;;15.05;12.40;;;;;;;19.97;92.37;100181.33;1691794;84;22240;-74
2021/07/14 01:36:59;;;;;;;17.40;14.73;;;;;;;19.94;92.31;100177.56;1691728;84;21112;-72
2021/07/14 01:39:29;;;;;;;18.67;14.58;;;;;;;19.92;92.70;100187.02;1717139;83;21060;-72
2021/07/14 01:41:55;;;;;;;17.62;14.83;;;;;;;19.88;91.05;100185.56;1717388;83;21100;-72
2021/07/14 01:44:24;;;;;;;18.23;14.30;;;;;;;19.86;91.37;100184.34;1688359;85;21049;-72
2021/07/14 01:46:57;;;;;;;18.20;15.08;;;;;;;19.86;92.15;100187.01;1691721;84;21167;-72
2021/07/14 01:49:22;;;;;;;21.15;16.05;;;;;;;19.83;89.20;100181.91;1716504;83;21156;-72
2021/07/14 01:51:53;;;;;;;20.68;16.67;;;;;;;19.85;91.42;100181.31;1717039;83;21037;-72
2021/07/14 01:54:23;;;;;;;20.10;15.78;;;;;;;19.83;91.25;100185.03;1718193;83;21005;-71
2021/07/14 01:56:51;;;;;;;21.40;17.00;;;;;;;19.81;92.10;100183.83;1699888;84;21065;-72
2021/07/14 01:59:18;;;;;;;19.92;16.48;;;;;;;19.80;92.61;100192.80;1699757;84;21136;-72
2021/07/14 02:01:45;;;;;;;18.00;15.23;;;;;;;19.76;92.80;100191.34;1699554;84;21179;-72
2021/07/14 02:04:30;;;;;;;17.62;14.87;;;;;;;19.75;92.98;100189.63;1699456;84;21132;-72
2021/07/14 02:07:16;;;;;;;20.02;14.13;;;;;;;19.73;93.39;100188.88;1699776;83;21219;-73
2021/07/14 02:09:45;;;;;;;11.43;8.75;;;;;;;19.73;91.65;100195.56;1699638;84;21062;-72
2021/07/14 02:12:22;;;;;;;18.90;15.03;;;;;;;19.74;90.69;100197.74;1705229;82;21073;-70
2021/07/14 02:15:00;;;;;;;21.57;16.02;;;;;;;19.74;90.61;100195.08;1730110;82;21139;-71
2021/07/14 02:17:31;;;;;;;18.92;14.70;;;;;;;19.75;92.01;100194.13;1750066;81;21555;-70
2021/07/14 02:20:15;;;;;;;17.95;14.93;;;;;;;19.75;93.05;100193.63;1760040;81;21128;-69
2021/07/14 02:22:42;;;;;;;18.73;14.75;;;;;;;19.75;93.55;100200.31;1730680;82;21097;-70
2021/07/14 02:25:11;;;;;;;15.23;13.62;;;;;;;19.75;93.75;100198.98;1761078;81;21005;-71
2021/07/14 02:27:41;;;;;;;18.70;14.87;;;;;;;19.76;94.02;100202.03;1761058;81;21115;-71
2021/07/14 02:30:18;;;;;;;19.42;14.45;;;;;;;19.78;93.85;100200.08;1730750;82;21023;-69
2021/07/14 02:32:59;;;;;;;16.62;13.90;;;;;;;19.77;93.87;100197.53;1752357;81;21809;-70
2021/07/14 02:35:28;;;;;;;17.87;14.78;;;;;;;19.82;94.11;100207.39;1703818;82;21095;-70
2021/07/14 02:38:26;;;;;;;16.80;13.15;;;;;;;19.85;94.16;100210.70;1761046;81;21072;-69
2021/07/14 02:41:25;;;;;;;17.02;14.07;;;;;;;19.87;94.32;100206.06;1760897;81;21065;-70
2021/07/14 02:44:01;;;;;;;20.15;16.20;;;;;;;19.93;94.34;100221.30;1731123;82;21058;-71
2021/07/14 02:46:30;;;;;;;17.32;12.58;;;;;;;19.94;94.44;100220.32;1751405;81;21029;-70
2021/07/14 02:49:03;;;;;;;22.22;13.48;;;;;;;19.96;94.64;100226.41;1731252;82;21097;-70
2021/07/14 02:51:33;;;;;;;18.75;14.25;;;;;;;20.01;94.63;100224.23;1761779;81;21132;-70
2021/07/14 02:54:03;;;;;;;17.80;14.20;;;;;;;20.06;94.32;100225.62;1731223;82;21063;-71
2021/07/14 02:56:30;;;;;;;20.43;15.32;;;;;;;20.12;93.91;100226.96;1725039;81;21215;-71
2021/07/14 02:59:02;;;;;;;25.72;14.38;;;;;;;20.17;93.86;100220.77;1729984;82;21064;-70
2021/07/14 03:01:30;;;;;;;21.85;14.47;;;;;;;20.23;92.74;100222.15;1747418;81;21046;-71
2021/07/14 03:03:57;;;;;;;17.77;15.83;;;;;;;20.27;93.05;100223.14;1779801;80;21110;-70
2021/07/14 03:06:24;;;;;;;14.65;10.25;;;;;;;20.36;93.18;100226.94;1730496;82;21155;-71
2021/07/14 03:08:51;;;;;;;15.85;13.98;;;;;;;20.43;92.44;100224.62;1730442;82;21452;-71
2021/07/14 03:11:18;;;;;;;21.27;15.70;;;;;;;20.52;92.33;100224.78;1730678;82;21027;-70
2021/07/14 03:13:47;;;;;;;22.00;14.95;;;;;;;20.63;91.17;100226.64;1720497;82;21032;-70
2021/07/14 03:16:14;;;;;;;27.80;17.02;;;;;;;20.72;91.25;100227.27;1689039;83;21554;-72
2021/07/14 03:18:46;;;;;;;17.98;13.10;;;;;;;20.82;91.16;100229.22;1715186;83;21244;-70
2021/07/14 03:21:10;;;;;;;21.23;15.15;;;;;;;20.90;88.95;100228.99;1714751;83;20984;-71
2021/07/14 03:23:40;;;;;;;23.05;15.13;;;;;;;21.03;89.79;100230.73;1715327;83;21093;-71
2021/07/14 03:26:08;;;;;;;19.92;14.07;;;;;;;21.13;89.02;100229.85;1728907;83;21128;-71
2021/07/14 03:28:39;;;;;;;20.80;16.07;;;;;;;21.27;88.50;100226.56;1715235;83;21511;-70
2021/07/14 03:31:08;;;;;;;29.42;16.48;;;;;;;21.43;88.42;100231.08;1729183;83;21053;-69
2021/07/14 03:33:35;;;;;;;34.35;16.80;;;;;;;21.57;87.47;100230.80;1715350;83;21609;-71
2021/07/14 03:36:08;;;;;;;29.32;17.65;;;;;;;21.74;87.55;100228.56;1729140;83;21132;-71
2021/07/14 03:38:33;;;;;;;18.62;14.53;;;;;;;21.88;87.01;100226.09;1715132;83;21123;-70
2021/07/14 03:41:00;;;;;;;20.50;16.15;;;;;;;22.00;85.50;100228.61;1728962;83;21523;-70
2021/07/14 03:43:27;;;;;;;27.98;19.00;;;;;;;22.17;85.48;100227.69;1712412;83;21156;-71
2021/07/14 03:45:55;;;;;;;27.22;16.48;;;;;;;22.34;84.29;100221.79;1701835;83;21325;-71
2021/07/14 03:48:22;;;;;;;21.62;15.28;;;;;;;22.49;83.14;100229.52;1686391;83;21087;-70
2021/07/14 03:50:51;;;;;;;25.23;17.00;;;;;;;22.66;83.38;100228.05;1728840;83;21085;-71
2021/07/14 03:53:20;;;;;;;24.30;16.97;;;;;;;22.85;81.96;100220.63;1715515;83;21068;-71
2021/07/14 03:55:48;;;;;;;24.45;16.55;;;;;;;23.03;81.40;100223.08;1728983;83;21988;-70
2021/07/14 03:58:16;;;;;;;23.22;14.63;;;;;;;23.22;80.77;100223.13;1715427;83;21067;-71
2021/07/14 04:00:44;;;;;;;23.02;17.52;;;;;;;23.42;77.92;100219.15;1699805;83;21117;-71
2021/07/14 04:03:12;;;;;;;29.65;19.48;;;;;;;23.62;78.18;100222.23;1699426;84;21068;-70
2021/07/14 04:05:44;;;;;;;26.50;15.95;;;;;;;23.77;77.70;100220.55;1700465;84;21041;-70
2021/07/14 04:08:17;;;;;;;23.83;16.67;;;;;;;23.95;75.01;100221.56;1699583;84;21053;-71
2021/07/14 04:10:46;;;;;;;19.87;15.85;;;;;;;24.16;74.68;100219.23;1704354;83;21085;-71
2021/07/14 04:13:13;;;;;;;19.87;15.23;;;;;;;24.34;72.37;100224.23;1719932;81;21025;-71
2021/07/14 04:15:40;;;;;;;23.30;17.15;;;;;;;24.44;70.79;100226.41;1743732;81;21113;-72
2021/07/14 04:18:08;;;;;;;23.20;17.17;;;;;;;24.49;71.56;100228.20;1744711;81;21086;-72
2021/07/14 04:20:35;;;;;;;22.77;17.82;;;;;;;24.46;70.52;100228.47;1737692;81;21170;-72
2021/07/14 04:23:01;;;;;;;22.58;16.97;;;;;;;24.60;71.92;100225.00;1725746;81;21100;-70
2021/07/14 04:25:30;;;;;;;19.87;15.83;;;;;;;24.75;69.90;100224.88;1743260;81;21096;-76
2021/07/14 04:27:58;;;;;;;20.92;17.15;;;;;;;24.95;69.81;100226.17;1751501;81;21998;-76
2021/07/14 04:30:27;;;;;;;22.35;16.32;;;;;;;25.12;70.01;100232.12;1724827;82;21127;-76
2021/07/14 04:32:53;;;;;;;24.95;16.85;;;;;;;25.28;68.70;100230.17;1720502;83;21584;-77
2021/07/14 04:35:20;;;;;;;18.80;15.60;;;;;;;25.46;68.80;100232.92;1747412;81;21025;-75
2021/07/14 04:37:49;;;;;;;17.27;13.85;;;;;;;25.59;67.52;100233.41;1727918;81;21043;-76
2021/07/14 04:40:17;;;;;;;20.48;13.90;;;;;;;25.68;66.19;100224.41;1743091;80;21044;-77
2021/07/14 04:42:44;;;;;;;22.32;15.35;;;;;;;25.82;66.79;100229.78;1718380;83;21587;-82
2021/07/14 04:45:14;;;;;;;25.77;14.47;;;;;;;25.95;62.91;100234.81;1726692;82;21735;-75
2021/07/14 04:47:42;;;;;;;19.02;14.33;;;;;;;26.08;64.93;100232.59;1729984;82;21088;-75
2021/07/14 04:50:10;;;;;;;19.25;14.80;;;;;;;26.25;65.08;100234.08;1724939;83;21057;-75
2021/07/14 04:52:38;;;;;;;24.37;15.95;;;;;;;26.41;63.21;100240.12;1729954;82;21052;-75
2021/07/14 04:55:10;;;;;;;19.80;14.87;;;;;;;26.64;64.16;100237.31;1722494;82;21562;-78
2021/07/14 04:57:37;;;;;;;19.98;14.98;;;;;;;26.84;63.85;100229.81;1734478;82;21173;-76
2021/07/14 05:00:07;;;;;;;16.10;14.35;;;;;;;27.02;63.21;100239.22;1725952;81;21206;-74
2021/07/14 05:02:34;;;;;;;22.00;14.45;;;;;;;27.18;62.50;100237.94;1718585;82;21068;-75
2021/07/14 05:05:04;;;;;;;25.32;16.40;;;;;;;27.34;62.19;100231.80;1741504;81;21723;-75
2021/07/14 05:07:31;;;;;;;21.30;15.80;;;;;;;27.57;61.52;100237.97;1743265;81;21070;-74
2021/07/14 05:09:58;;;;;;;18.37;14.63;;;;;;;27.75;60.59;100235.98;1737741;81;21143;-73
2021/07/14 05:12:27;;;;;;;21.02;14.85;;;;;;;27.98;60.28;100234.88;1758615;81;21619;-75
2021/07/14 05:14:54;;;;;;;24.10;14.15;;;;;;;28.20;58.79;100233.34;1742114;81;21535;-74
2021/07/14 05:17:21;;;;;;;21.37;15.03;;;;;;;28.47;56.14;100236.78;1748173;81;21018;-74
2021/07/14 05:19:50;;;;;;;20.90;13.88;;;;;;;28.74;55.68;100232.85;1750969;81;21618;-73
2021/07/14 05:22:18;;;;;;;16.00;12.63;;;;;;;28.90;56.23;100227.91;1749384;81;21686;-74
2021/07/14 05:24:45;;;;;;;20.15;14.35;;;;;;;29.12;53.01;100234.98;1741413;82;21068;-74
2021/07/14 05:27:12;;;;;;;31.00;15.23;;;;;;;29.39;54.00;100229.10;1745965;82;21037;-73
2021/07/14 05:29:41;;;;;;;24.23;14.43;;;;;;;29.62;53.00;100235.94;1746093;82;21069;-76
2021/07/14 05:32:08;;;;;;;28.07;14.58;;;;;;;29.83;50.48;100238.05;1745868;82;21104;-75
2021/07/14 05:34:35;;;;;;;31.25;15.60;;;;;;;30.00;51.92;100239.29;1742679;81;21884;-75
2021/07/14 05:37:02;;;;;;;22.62;14.45;;;;;;;30.09;50.24;100235.48;1730416;82;21152;-75
2021/07/14 05:39:30;;;;;;;18.92;13.40;;;;;;;30.26;49.47;100230.79;1730506;82;21080;-75
2021/07/14 05:41:57;;;;;;;23.00;12.75;;;;;;;30.41;50.69;100236.28;1730522;82;22265;-74
2021/07/14 05:44:24;;;;;;;27.35;15.23;;;;;;;30.45;49.89;100232.17;1730614;82;21633;-75
2021/07/14 05:46:52;;;;;;;22.82;14.47;;;;;;;30.47;50.58;100234.20;1737030;81;21287;-74
2021/07/14 05:49:19;;;;;;;20.05;12.43;;;;;;;30.56;50.50;100236.34;1730495;82;21555;-77
2021/07/14 05:51:47;;;;;;;24.15;13.43;;;;;;;30.77;49.40;100230.17;1737578;81;21096;-74
2021/07/14 05:54:14;;;;;;;25.23;12.55;;;;;;;30.77;49.40;100230.17;1741832;81;21052;-77
2021/07/14 05:56:41;;;;;;;27.45;13.83;;;;;;;30.87;46.62;100236.20;1743352;81;22083;-74
2021/07/14 05:59:07;;;;;;;22.05;13.18;;;;;;;31.01;48.10;100231.28;1727695;82;21142;-76
2021/07/14 06:01:35;;;;;;;21.12;13.35;;;;;;;31.17;47.75;100232.12;1722699;83;21058;-76
2021/07/14 06:04:03;;;;;;;28.40;15.48;;;;;;;31.39;46.00;100224.37;1723497;82;21439;-74
2021/07/14 06:06:30;;;;;;;21.50;12.88;;;;;;;31.65;47.21;100227.11;1737113;82;21077;-75
2021/07/14 06:09:56;;;;;;;27.95;13.03;;;;;;;31.83;46.34;100227.52;1787209;79;22765;-75
2021/07/14 06:12:23;;;;;;;23.15;13.55;;;;;;;31.83;44.74;100226.16;1749319;81;21097;-74
2021/07/14 06:14:51;;;;;;;22.05;13.95;;;;;;;32.00;46.28;100227.30;1750032;81;21147;-75
2021/07/14 06:17:18;;;;;;;21.05;13.25;;;;;;;32.14;45.55;100217.71;1749951;81;21018;-74
2021/07/14 06:19:46;;;;;;;20.08;13.20;;;;;;;32.25;43.63;100221.77;1750118;82;21612;-75
2021/07/14 06:22:13;;;;;;;18.65;12.45;;;;;;;32.44;44.52;100223.49;1749893;81;21048;-75
2021/07/14 06:24:42;;;;;;;28.02;13.98;;;;;;;32.55;42.31;100224.35;1750125;82;21639;-75
2021/07/14 06:27:09;;;;;;;22.93;13.28;;;;;;;32.69;44.57;100219.84;1750616;82;21127;-75
2021/07/14 06:29:36;;;;;;;16.62;12.15;;;;;;;32.84;43.92;100215.12;1750461;82;20978;-75
2021/07/14 06:32:04;;;;;;;20.68;13.40;;;;;;;32.98;41.95;100218.77;1750172;82;21028;-75
2021/07/14 06:34:34;;;;;;;29.10;12.47;;;;;;;33.13;43.68;100218.66;1750240;82;21496;-74
2021/07/14 06:37:00;;;;;;;26.13;12.40;;;;;;;33.46;42.22;100221.55;1750564;81;21112;-74
2021/07/14 06:39:27;;;;;;;18.87;12.10;;;;;;;33.46;42.22;100221.55;1749509;81;21402;-75
2021/07/14 06:41:55;;;;;;;19.40;10.25;;;;;;;33.73;41.52;100224.38;1746642;81;21643;-75
2021/07/14 06:44:23;;;;;;;20.90;11.35;;;;;;;33.79;40.28;100220.83;1749478;82;21081;-75
2021/07/14 06:46:50;;;;;;;25.48;11.43;;;;;;;33.95;41.25;100222.34;1749659;82;21018;-75
2021/07/14 06:49:18;;;;;;;20.23;10.60;;;;;;;34.03;39.93;100223.52;1749308;82;21489;-75
2021/07/14 06:51:46;;;;;;;18.48;11.08;;;;;;;34.06;39.13;100221.72;1749766;82;21192;-75
2021/07/14 06:54:13;;;;;;;20.32;10.18;;;;;;;34.12;39.55;100229.63;1749460;82;21072;-77
2021/07/14 06:56:40;;;;;;;23.92;11.55;;;;;;;34.05;37.13;100226.36;1750519;81;21088;-76
2021/07/14 06:59:07;;;;;;;22.77;10.82;;;;;;;34.09;40.24;100228.66;1756135;81;21585;-74
2021/07/14 07:01:34;;;;;;;21.15;10.60;;;;;;;34.29;39.64;100222.72;1756046;81;21023;-76
2021/07/14 07:04:03;;;;;;;16.73;9.85;;;;;;;34.36;37.21;100221.36;1756024;81;21129;-75
2021/07/14 07:06:30;;;;;;;15.00;8.70;;;;;;;34.42;38.46;100219.16;1755819;81;21070;-76
2021/07/14 07:08:56;;;;;;;12.90;8.28;;;;;;;34.45;36.65;100219.56;1749940;81;21549;-76
2021/07/14 07:11:23;;;;;;;10.38;7.75;;;;;;;34.45;36.79;100223.66;1742963;81;21010;-75
2021/07/14 07:13:51;;;;;;;13.80;7.62;;;;;;;34.51;36.98;100221.98;1742758;81;21019;-75
2021/07/14 07:16:19;;;;;;;9.98;7.85;;;;;;;34.55;35.07;100217.75;1742824;81;21085;-74
2021/07/14 07:18:48;;;;;;;13.78;7.70;;;;;;;34.75;35.89;100212.30;1742752;82;21503;-74
2021/07/14 07:21:15;;;;;;;8.58;6.83;;;;;;;34.87;35.73;100210.58;1743764;81;21069;-77
2021/07/14 07:23:42;;;;;;;12.13;7.70;;;;;;;35.09;35.52;100209.79;1747845;82;21544;-77
2021/07/14 07:26:09;;;;;;;12.07;7.15;;;;;;;35.40;35.35;100206.02;1742850;82;21259;-77
2021/07/14 07:28:40;;;;;;;10.43;7.70;;;;;;;35.50;34.12;100209.14;1742361;82;21148;-77
2021/07/14 07:31:07;;;;;;;10.80;7.25;;;;;;;35.40;34.68;100211.48;1742406;82;21049;-76
2021/07/14 07:33:34;;;;;;;8.48;6.67;;;;;;;35.31;34.67;100206.78;1736806;82;21599;-77
2021/07/14 07:36:01;;;;;;;10.32;7.28;;;;;;;35.70;33.46;100201.66;1741749;82;21009;-76
2021/07/14 07:38:28;;;;;;;13.83;7.70;;;;;;;35.97;34.08;100207.51;1741245;81;21053;-77
2021/07/14 07:40:57;;;;;;;8.90;5.87;;;;;;;36.23;32.64;100202.38;1734447;81;21138;-75
2021/07/14 07:43:28;;;;;;;7.75;5.75;;;;;;;36.43;30.83;100205.78;1736357;82;21106;-74
2021/07/14 07:45:56;;;;;;;10.05;6.33;;;;;;;36.42;31.07;100197.77;1738673;82;21030;-76
2021/07/14 07:48:23;;;;;;;8.88;5.83;;;;;;;36.40;30.60;100198.02;1737922;82;21564;-75
2021/07/14 07:50:50;;;;;;;6.20;5.60;;;;;;;36.38;30.83;100197.40;1737751;82;21599;-77
2021/07/14 07:53:19;;;;;;;8.20;5.37;;;;;;;36.28;30.75;100195.68;1737762;82;21481;-77
2021/07/14 07:55:49;;;;;;;7.75;5.12;;;;;;;36.29;30.35;100198.75;1734198;81;21025;-73
2021/07/14 07:58:16;;;;;;;7.25;5.03;;;;;;;36.08;30.37;100199.41;1742485;82;21096;-74
2021/07/14 08:00:43;;;;;;;8.93;5.28;;;;;;;35.94;29.91;100190.98;1734550;82;21034;-74
2021/07/14 08:03:10;;;;;;;7.17;4.62;;;;;;;36.19;29.66;100182.81;1739635;82;21515;-74
2021/07/14 08:05:41;;;;;;;6.85;4.85;;;;;;;36.47;29.71;100189.19;1738812;81;21160;-74
2021/07/14 08:08:07;;;;;;;11.95;5.40;;;;;;;36.60;28.98;100191.52;1736612;81;21095;-72
2021/07/14 08:10:36;;;;;;;7.17;4.70;;;;;;;36.56;29.11;100182.89;1745644;81;21026;-73
2021/07/14 08:13:05;;;;;;;6.58;4.60;;;;;;;36.38;28.90;100186.43;1748170;81;21118;-74
2021/07/14 08:15:33;;;;;;;6.58;4.75;;;;;;;36.16;28.74;100179.13;1742339;81;21094;-75
2021/07/14 08:18:01;;;;;;;6.50;4.60;;;;;;;35.96;29.41;100177.90;1747910;81;22209;-76
2021/07/14 08:20:28;;;;;;;6.45;4.25;;;;;;;35.82;30.03;100184.52;1732913;81;21080;-70
2021/07/14 08:22:56;;;;;;;8.43;4.50;;;;;;;35.48;29.73;100186.61;1729169;81;21584;-70
2021/07/14 08:25:23;;;;;;;8.18;4.75;;;;;;;35.47;30.05;100190.39;1745851;81;21109;-70
2021/07/14 08:27:50;;;;;;;5.00;4.53;;;;;;;35.69;30.26;100182.18;1746407;81;21052;-70
2021/07/14 08:30:20;;;;;;;6.12;5.20;;;;;;;35.91;29.75;100180.44;1748851;81;21497;-71
2021/07/14 08:32:47;;;;;;;5.10;4.60;;;;;;;36.03;28.96;100181.42;1745695;81;21008;-70
2021/07/14 08:35:14;;;;;;;7.15;5.30;;;;;;;36.10;29.30;100182.24;1737679;81;21104;-70
2021/07/14 08:37:41;;;;;;;7.08;5.80;;;;;;;36.16;29.94;100180.49;1748420;81;21088;-71
2021/07/14 08:40:09;;;;;;;9.50;6.05;;;;;;;36.13;29.64;100181.78;1732301;81;21053;-70
2021/07/14 08:42:38;;;;;;;7.65;5.65;;;;;;;36.05;30.16;100186.16;1750996;81;21654;-72
2021/07/14 08:45:08;;;;;;;7.62;5.80;;;;;;;35.92;29.08;100182.97;1741692;81;21093;-70
2021/07/14 08:47:36;;;;;;;9.75;5.33;;;;;;;36.09;29.25;100173.66;1734707;81;21102;-71
2021/07/14 08:50:07;;;;;;;7.42;5.50;;;;;;;36.63;29.32;100171.85;1704309;81;21540;-70
2021/07/14 08:52:35;;;;;;;12.00;5.87;;;;;;;37.31;27.07;100172.25;1746422;81;21080;-71
2021/07/14 08:55:01;;;;;;;7.45;5.55;;;;;;;37.79;27.34;100171.38;1740425;81;22280;-70
2021/07/14 08:57:28;;;;;;;8.20;5.40;;;;;;;38.11;26.45;100171.95;1753268;81;21025;-70
2021/07/14 08:59:57;;;;;;;8.23;5.80;;;;;;;38.41;25.65;100176.52;1739470;81;21034;-70
2021/07/14 09:02:24;;;;;;;8.25;5.95;;;;;;;38.75;25.86;100174.02;1745942;81;22091;-71
2021/07/14 09:04:51;;;;;;;10.38;6.05;;;;;;;38.79;25.34;100162.80;1749479;81;21062;-70
2021/07/14 09:07:20;;;;;;;12.07;6.47;;;;;;;38.53;26.07;100167.73;1727294;81;21070;-71
2021/07/14 09:09:47;;;;;;;11.97;6.10;;;;;;;38.26;26.91;100165.14;1730076;81;21014;-72
2021/07/14 09:12:14;;;;;;;8.80;5.83;;;;;;;37.90;27.10;100165.63;1698752;82;21276;-70
2021/07/14 09:14:42;;;;;;;10.85;6.17;;;;;;;37.26;27.92;100178.44;1713272;82;21295;-72
2021/07/14 09:17:22;;;;;;;7.97;6.47;;;;;;;36.81;28.50;100166.41;1720237;83;21044;-70
2021/07/14 09:19:53;;;;;;;11.12;6.28;;;;;;;36.72;28.37;100162.29;1719468;82;21212;-70
2021/07/14 09:22:25;;;;;;;;;;;;;;;36.72;28.60;100160.92;1710456;83;21057;-70
2021/07/14 09:24:56;;;;;;;9.73;5.92;;;;;;;36.79;28.79;100168.54;1720027;83;20238;-71
2021/07/14 09:27:31;;;;;;;14.80;6.80;;;;;;;36.79;27.80;100163.05;1707701;83;21023;-70
2021/07/14 09:30:18;;;;;;;12.07;6.85;;;;;;;36.78;28.62;100162.73;1719662;83;21104;-70
2021/07/14 09:32:49;;;;;;;11.93;6.90;;;;;;;36.50;28.10;100161.84;1703192;83;21529;-70
2021/07/14 09:35:30;;;;;;;8.15;6.67;;;;;;;36.69;28.99;100165.47;1681563;85;21099;-70
2021/07/14 09:38:00;;;;;;;15.72;7.10;;;;;;;36.86;28.69;100161.06;1710308;82;21131;-70
2021/07/14 09:40:27;;;;;;;8.75;6.85;;;;;;;36.92;28.71;100157.38;1719777;82;21119;-71
2021/07/14 09:43:02;;;;;;;11.55;5.97;;;;;;;36.75;29.86;100153.05;1710509;83;21037;-71
2021/07/14 09:45:48;;;;;;;9.60;6.58;;;;;;;36.57;29.88;100154.92;1708705;84;21136;-70
2021/07/14 09:48:37;;;;;;;11.55;6.87;;;;;;;36.56;30.19;100163.69;1708094;84;21066;-71
2021/07/14 09:51:21;;;;;;;8.95;6.72;;;;;;;36.34;30.65;100155.03;1708175;84;21053;-71
2021/07/14 09:53:51;;;;;;;12.65;6.28;;;;;;;36.45;29.63;100151.55;1712556;82;21457;-71
2021/07/14 09:56:28;;;;;;;10.40;7.12;;;;;;;36.78;29.25;100150.38;1714301;83;21053;-70
2021/07/14 09:59:10;;;;;;;11.08;7.00;;;;;;;36.65;29.47;100160.13;1711190;83;21563;-70
2021/07/14 10:01:51;;;;;;;10.70;7.12;;;;;;;36.72;28.53;100148.58;1702699;82;21551;-71
2021/07/14 10:04:29;;;;;;;11.97;6.75;;;;;;;36.86;28.70;100162.44;1714366;82;21045;-69
2021/07/14 10:07:24;;;;;;;8.35;6.58;;;;;;;37.06;28.69;100151.73;1717180;82;21053;-71
2021/07/14 10:09:51;;;;;;;8.35;5.67;;;;;;;37.02;28.82;100158.75;1726670;81;21508;-71
2021/07/14 10:12:35;;;;;;;10.98;6.58;;;;;;;36.53;29.14;100148.50;1741747;81;21534;-71
2021/07/14 10:15:18;;;;;;;7.50;6.70;;;;;;;36.38;30.19;100149.41;1703318;83;21078;-70
2021/07/14 10:17:52;;;;;;;11.85;7.30;;;;;;;36.42;29.71;100158.87;1747871;82;21066;-71
2021/07/14 10:20:29;;;;;;;8.45;6.12;;;;;;;36.41;29.77;100156.34;1747618;81;21076;-71
2021/07/14 10:23:09;;;;;;;11.30;6.30;;;;;;;36.37;29.55;100149.63;1747875;81;21062;-70
2021/07/14 10:25:40;;;;;;;11.38;5.67;;;;;;;36.43;30.31;100150.94;1747471;82;21837;-72
2021/07/14 10:28:09;;;;;;;7.08;6.30;;;;;;;36.25;30.03;100148.99;1747706;82;21054;-69
2021/07/14 10:30:38;;;;;;;7.70;5.55;;;;;;;36.07;30.27;100148.91;1709629;83;21069;-69
2021/07/14 10:33:05;;;;;;;10.65;5.87;;;;;;;36.18;30.19;100146.02;1747611;82;21026;-71
2021/07/14 10:35:42;;;;;;;10.25;6.00;;;;;;;36.51;29.46;100147.91;1747299;81;21513;-71
2021/07/14 10:38:15;;;;;;;7.10;5.40;;;;;;;36.36;29.39;100147.42;1747150;81;22161;-70
2021/07/14 10:40:45;;;;;;;6.17;5.58;;;;;;;36.35;29.59;100145.73;1709398;83;21171;-69
2021/07/14 10:43:16;;;;;;;8.20;6.22;;;;;;;36.45;29.25;100146.06;1747278;81;21589;-70
2021/07/14 10:45:49;;;;;;;6.30;5.60;;;;;;;36.55;29.36;100140.88;1709554;83;21090;-71
2021/07/14 10:48:22;;;;;;;8.25;5.87;;;;;;;36.61;29.32;100132.87;1742297;81;21324;-70
2021/07/14 10:50:52;;;;;;;6.10;5.40;;;;;;;36.44;29.25;100147.11;1709455;83;21288;-71
2021/07/14 10:53:19;;;;;;;7.60;5.47;;;;;;;36.15;29.54;100135.52;1743963;81;21619;-71
2021/07/14 10:55:46;;;;;;;12.35;6.22;;;;;;;36.00;30.03;100142.11;1735934;82;21156;-71
2021/07/14 10:58:20;;;;;;;11.30;5.65;;;;;;;36.03;29.63;100143.06;1731579;82;21069;-71
2021/07/14 11:00:47;;;;;;;12.53;6.37;;;;;;;36.10;29.99;100142.50;1742474;82;21081;-70
2021/07/14 11:03:38;;;;;;;7.87;5.20;;;;;;;35.90;30.12;100137.67;1742316;82;21197;-71
2021/07/14 11:06:09;;;;;;;11.78;6.30;;;;;;;35.91;30.56;100131.13;1739507;82;21087;-70
2021/07/14 11:08:49;;;;;;;11.97;6.33;;;;;;;35.82;30.96;100132.46;1739887;80;21026;-71
2021/07/14 11:11:21;;;;;;;12.00;6.17;;;;;;;35.91;30.45;100131.13;1739220;81;21066;-71
2021/07/14 11:13:51;;;;;;;14.45;5.60;;;;;;;35.89;30.65;100142.33;1742268;81;22544;-72
2021/07/14 11:16:37;;;;;;;10.35;5.87;;;;;;;35.79;30.14;100141.13;1739168;82;21776;-70
2021/07/14 11:19:17;;;;;;;6.97;5.80;;;;;;;35.78;29.89;100144.95;1741959;81;21050;-70
2021/07/14 11:22:02;;;;;;;8.35;5.60;;;;;;;35.80;30.09;100134.58;1747281;82;21573;-70
2021/07/14 11:24:46;;;;;;;8.53;6.15;;;;;;;36.05;29.83;100131.85;1743900;82;21080;-71
2021/07/14 11:27:31;;;;;;;7.25;5.78;;;;;;;36.42;28.82;100128.70;1727600;82;21113;-71
2021/07/14 11:30:10;;;;;;;11.10;5.92;;;;;;;36.54;28.97;100129.63;1742232;82;21081;-70
2021/07/14 11:32:46;;;;;;;11.18;6.05;;;;;;;36.43;28.94;100137.23;1742945;82;21015;-71
2021/07/14 11:35:19;;;;;;;6.70;5.47;;;;;;;36.31;28.99;100122.59;1743020;81;21110;-74
2021/07/14 11:37:56;;;;;;;6.00;5.17;;;;;;;36.05;29.08;100124.49;1705036;83;21069;-71
2021/07/14 11:40:29;;;;;;;9.90;5.62;;;;;;;36.19;29.29;100123.01;1687026;85;21065;-71